sensor_id;sensor_type;location;lat;lon;timestamp;P1;durP1;ratioP1;P2;durP2;ratioP2
18473;SDS011;30265;52.408;13.500;2023-05-20T00:07:03;7.88;;;3.88;;
18473;SDS011;30265;52.408;13.500;2023-05-20T00:17:25;5.97;;;3.65;;
18473;SDS011;30265;52.408;13.500;2023-05-20T00:27:48;6.53;;;3.67;;
18473;SDS011;30265;52.408;13.500;2023-05-20T00:38:10;6.20;;;3.22;;
18473;SDS011;30265;52.408;13.500;2023-05-20T01:00:39;4.65;;;3.33;;
18473;SDS011;30265;52.408;13.500;2023-05-20T01:11:09;6.38;;;3.65;;
18473;SDS011;30265;52.408;13.500;2023-05-20T01:34:17;7.07;;;3.90;;
18473;SDS011;30265;52.408;13.500;2023-05-20T02:21:28;7.00;;;4.10;;
18473;SDS011;30265;52.408;13.500;2023-05-20T02:32:00;8.10;;;4.28;;
18473;SDS011;30265;52.408;13.500;2023-05-20T02:42:28;10.55;;;4.40;;
18473;SDS011;30265;52.408;13.500;2023-05-20T02:53:26;6.05;;;4.30;;
18473;SDS011;30265;52.408;13.500;2023-05-20T03:03:51;5.82;;;4.00;;
18473;SDS011;30265;52.408;13.500;2023-05-20T03:38:14;9.50;;;4.05;;
18473;SDS011;30265;52.408;13.500;2023-05-20T03:48:40;6.22;;;3.75;;
18473;SDS011;30265;52.408;13.500;2023-05-20T04:00:04;6.53;;;4.50;;
18473;SDS011;30265;52.408;13.500;2023-05-20T04:11:13;9.90;;;4.47;;
18473;SDS011;30265;52.408;13.500;2023-05-20T04:23:02;9.90;;;4.13;;
18473;SDS011;30265;52.408;13.500;2023-05-20T04:33:28;7.10;;;3.10;;
18473;SDS011;30265;52.408;13.500;2023-05-20T04:44:17;7.28;;;4.57;;
18473;SDS011;30265;52.408;13.500;2023-05-20T04:55:55;10.05;;;4.28;;
18473;SDS011;30265;52.408;13.500;2023-05-20T06:18:04;12.73;;;5.10;;
18473;SDS011;30265;52.408;13.500;2023-05-20T06:29:46;14.07;;;5.57;;
18473;SDS011;30265;52.408;13.500;2023-05-20T06:41:24;9.07;;;4.90;;
18473;SDS011;30265;52.408;13.500;2023-05-20T06:51:47;11.13;;;5.30;;
18473;SDS011;30265;52.408;13.500;2023-05-20T07:02:12;13.40;;;5.38;;
18473;SDS011;30265;52.408;13.500;2023-05-20T07:12:35;9.20;;;5.10;;
18473;SDS011;30265;52.408;13.500;2023-05-20T07:22:58;12.32;;;5.18;;
18473;SDS011;30265;52.408;13.500;2023-05-20T07:33:29;8.48;;;5.82;;
18473;SDS011;30265;52.408;13.500;2023-05-20T07:43:53;12.45;;;5.10;;
18473;SDS011;30265;52.408;13.500;2023-05-20T07:54:15;9.68;;;4.88;;
18473;SDS011;30265;52.408;13.500;2023-05-20T08:04:40;9.25;;;4.30;;
18473;SDS011;30265;52.408;13.500;2023-05-20T08:15:03;7.40;;;4.55;;
18473;SDS011;30265;52.408;13.500;2023-05-20T08:25:26;6.95;;;4.30;;
18473;SDS011;30265;52.408;13.500;2023-05-20T08:35:49;9.30;;;4.10;;
18473;SDS011;30265;52.408;13.500;2023-05-20T08:46:12;10.00;;;4.47;;
18473;SDS011;30265;52.408;13.500;2023-05-20T08:56:39;5.85;;;3.90;;
18473;SDS011;30265;52.408;13.500;2023-05-20T09:07:04;8.32;;;4.63;;
18473;SDS011;30265;52.408;13.500;2023-05-20T09:17:26;9.80;;;5.07;;
18473;SDS011;30265;52.408;13.500;2023-05-20T09:27:49;8.35;;;5.22;;
18473;SDS011;30265;52.408;13.500;2023-05-20T09:38:13;14.90;;;7.10;;
18473;SDS011;30265;52.408;13.500;2023-05-20T09:48:37;13.00;;;6.35;;
18473;SDS011;30265;52.408;13.500;2023-05-20T09:58:58;11.85;;;6.55;;
18473;SDS011;30265;52.408;13.500;2023-05-20T10:09:31;16.20;;;6.43;;
18473;SDS011;30265;52.408;13.500;2023-05-20T10:20:05;13.68;;;6.60;;
18473;SDS011;30265;52.408;13.500;2023-05-20T10:30:47;10.33;;;6.20;;
18473;SDS011;30265;52.408;13.500;2023-05-20T10:41:09;12.27;;;6.65;;
18473;SDS011;30265;52.408;13.500;2023-05-20T10:51:38;12.00;;;7.55;;
18473;SDS011;30265;52.408;13.500;2023-05-20T11:02:09;12.10;;;6.30;;
18473;SDS011;30265;52.408;13.500;2023-05-20T11:12:33;12.45;;;5.57;;
18473;SDS011;30265;52.408;13.500;2023-05-20T11:22:55;12.00;;;5.88;;
18473;SDS011;30265;52.408;13.500;2023-05-20T11:33:25;13.40;;;7.22;;
18473;SDS011;30265;52.408;13.500;2023-05-20T11:43:49;11.68;;;6.50;;
18473;SDS011;30265;52.408;13.500;2023-05-20T11:54:18;13.40;;;6.10;;
18473;SDS011;30265;52.408;13.500;2023-05-20T12:04:59;13.52;;;7.07;;
18473;SDS011;30265;52.408;13.500;2023-05-20T12:15:23;10.07;;;6.85;;
18473;SDS011;30265;52.408;13.500;2023-05-20T12:25:45;12.23;;;6.97;;
18473;SDS011;30265;52.408;13.500;2023-05-20T12:36:14;9.48;;;6.82;;
18473;SDS011;30265;52.408;13.500;2023-05-20T12:46:39;13.25;;;7.28;;
18473;SDS011;30265;52.408;13.500;2023-05-20T12:57:02;13.25;;;7.78;;
18473;SDS011;30265;52.408;13.500;2023-05-20T13:07:25;12.02;;;6.97;;
18473;SDS011;30265;52.408;13.500;2023-05-20T13:17:48;11.50;;;7.57;;
18473;SDS011;30265;52.408;13.500;2023-05-20T13:28:10;11.93;;;6.47;;
18473;SDS011;30265;52.408;13.500;2023-05-20T13:38:39;19.35;;;9.57;;
18473;SDS011;30265;52.408;13.500;2023-05-20T13:49:01;10.68;;;6.50;;
18473;SDS011;30265;52.408;13.500;2023-05-20T13:59:30;9.25;;;7.28;;
18473;SDS011;30265;52.408;13.500;2023-05-20T14:09:53;10.48;;;6.07;;
18473;SDS011;30265;52.408;13.500;2023-05-20T14:20:17;11.75;;;6.35;;
18473;SDS011;30265;52.408;13.500;2023-05-20T14:41:07;10.27;;;6.70;;
18473;SDS011;30265;52.408;13.500;2023-05-20T14:51:29;14.25;;;6.07;;
18473;SDS011;30265;52.408;13.500;2023-05-20T15:01:52;10.48;;;6.53;;
18473;SDS011;30265;52.408;13.500;2023-05-20T15:12:16;12.80;;;5.75;;
18473;SDS011;30265;52.408;13.500;2023-05-20T15:22:41;7.53;;;5.80;;
18473;SDS011;30265;52.408;13.500;2023-05-20T15:33:04;11.73;;;6.07;;
18473;SDS011;30265;52.408;13.500;2023-05-20T15:43:27;15.32;;;5.57;;
18473;SDS011;30265;52.408;13.500;2023-05-20T15:53:49;12.55;;;5.70;;
18473;SDS011;30265;52.408;13.500;2023-05-20T16:04:14;8.25;;;6.05;;
18473;SDS011;30265;52.408;13.500;2023-05-20T16:14:36;10.38;;;6.50;;
18473;SDS011;30265;52.408;13.500;2023-05-20T16:24:59;10.43;;;6.10;;
18473;SDS011;30265;52.408;13.500;2023-05-20T16:35:20;9.40;;;5.30;;
18473;SDS011;30265;52.408;13.500;2023-05-20T16:45:45;8.73;;;5.75;;
18473;SDS011;30265;52.408;13.500;2023-05-20T16:56:06;8.13;;;5.28;;
18473;SDS011;30265;52.408;13.500;2023-05-20T17:06:29;11.05;;;6.57;;
18473;SDS011;30265;52.408;13.500;2023-05-20T17:16:53;10.88;;;7.55;;
18473;SDS011;30265;52.408;13.500;2023-05-20T17:27:16;11.52;;;6.43;;
18473;SDS011;30265;52.408;13.500;2023-05-20T17:37:38;10.97;;;6.93;;
18473;SDS011;30265;52.408;13.500;2023-05-20T17:48:00;10.07;;;6.65;;
18473;SDS011;30265;52.408;13.500;2023-05-20T17:58:29;9.63;;;5.80;;
18473;SDS011;30265;52.408;13.500;2023-05-20T18:08:55;10.20;;;6.53;;
18473;SDS011;30265;52.408;13.500;2023-05-20T18:19:19;14.45;;;6.40;;
18473;SDS011;30265;52.408;13.500;2023-05-20T18:29:44;8.85;;;5.43;;
18473;SDS011;30265;52.408;13.500;2023-05-20T18:40:06;12.43;;;6.30;;
18473;SDS011;30265;52.408;13.500;2023-05-20T18:50:31;10.48;;;6.38;;
18473;SDS011;30265;52.408;13.500;2023-05-20T19:00:53;10.75;;;6.80;;
18473;SDS011;30265;52.408;13.500;2023-05-20T19:11:18;12.57;;;6.88;;
18473;SDS011;30265;52.408;13.500;2023-05-20T19:21:41;11.17;;;7.00;;
18473;SDS011;30265;52.408;13.500;2023-05-20T19:32:06;13.77;;;6.80;;
18473;SDS011;30265;52.408;13.500;2023-05-20T19:52:51;13.20;;;7.10;;
18473;SDS011;30265;52.408;13.500;2023-05-20T20:03:21;12.38;;;7.18;;
18473;SDS011;30265;52.408;13.500;2023-05-20T20:13:46;11.80;;;7.03;;
18473;SDS011;30265;52.408;13.500;2023-05-20T20:24:11;9.98;;;7.00;;
18473;SDS011;30265;52.408;13.500;2023-05-20T20:34:35;14.40;;;8.32;;
18473;SDS011;30265;52.408;13.500;2023-05-20T20:55:22;13.73;;;8.30;;
18473;SDS011;30265;52.408;13.500;2023-05-20T21:05:44;12.90;;;8.52;;
18473;SDS011;30265;52.408;13.500;2023-05-20T21:16:09;14.63;;;9.05;;
18473;SDS011;30265;52.408;13.500;2023-05-20T21:36:58;20.70;;;9.83;;
18473;SDS011;30265;52.408;13.500;2023-05-20T21:47:20;13.02;;;8.60;;
18473;SDS011;30265;52.408;13.500;2023-05-20T21:57:43;15.75;;;10.60;;
18473;SDS011;30265;52.408;13.500;2023-05-20T22:08:05;17.80;;;10.15;;
18473;SDS011;30265;52.408;13.500;2023-05-20T22:18:30;13.40;;;10.07;;
18473;SDS011;30265;52.408;13.500;2023-05-20T22:28:54;15.85;;;10.50;;
18473;SDS011;30265;52.408;13.500;2023-05-20T22:39:20;19.65;;;13.02;;
18473;SDS011;30265;52.408;13.500;2023-05-20T22:49:42;18.67;;;12.13;;
18473;SDS011;30265;52.408;13.500;2023-05-20T23:00:06;18.95;;;12.20;;
18473;SDS011;30265;52.408;13.500;2023-05-20T23:10:30;17.48;;;11.95;;
18473;SDS011;30265;52.408;13.500;2023-05-20T23:20:54;25.70;;;13.50;;
18473;SDS011;30265;52.408;13.500;2023-05-20T23:31:16;21.40;;;14.23;;
18473;SDS011;30265;52.408;13.500;2023-05-20T23:41:42;24.52;;;14.10;;
18473;SDS011;30265;52.408;13.500;2023-05-20T23:52:04;20.37;;;13.23;;
